createdAt,value
2022-08-26T00:01:54.569Z,10.38
2022-08-26T00:04:25.309Z,12.13
2022-08-26T00:06:56.747Z,12.20
2022-08-26T00:09:26.235Z,11.00
2022-08-26T00:11:54.534Z,11.52
2022-08-26T00:14:28.326Z,11.85
2022-08-26T00:17:01.032Z,11.15
2022-08-26T00:19:28.212Z,11.27
2022-08-26T00:21:55.117Z,12.57
2022-08-26T00:24:23.439Z,11.73
2022-08-26T00:26:51.560Z,12.40
2022-08-26T00:29:18.772Z,11.20
2022-08-26T00:31:45.796Z,12.32
2022-08-26T00:34:15.267Z,11.23
2022-08-26T00:36:42.473Z,11.55
2022-08-26T00:39:10.592Z,12.20
2022-08-26T00:41:41.391Z,12.27
2022-08-26T00:44:11.706Z,12.95
2022-08-26T00:46:52.993Z,11.93
2022-08-26T00:49:37.039Z,12.32
2022-08-26T00:52:12.084Z,10.95
2022-08-26T00:54:53.526Z,11.57
2022-08-26T00:57:23.560Z,11.88
2022-08-26T01:00:00.428Z,12.57
2022-08-26T01:02:28.879Z,11.65
2022-08-26T01:05:03.366Z,10.93
2022-08-26T01:07:34.742Z,11.85
2022-08-26T01:10:10.427Z,11.68
2022-08-26T01:12:52.299Z,11.98
2022-08-26T01:15:36.023Z,11.57
2022-08-26T01:21:00.598Z,11.63
2022-08-26T01:26:35.040Z,11.95
2022-08-26T01:29:06.473Z,11.82
2022-08-26T01:31:44.517Z,11.95
2022-08-26T01:34:23.909Z,11.85
2022-08-26T01:37:25.929Z,11.55
2022-08-26T01:39:56.574Z,12.80
2022-08-26T01:42:27.342Z,12.50
2022-08-26T01:45:14.823Z,13.63
2022-08-26T01:47:43.230Z,12.60
2022-08-26T01:50:28.103Z,12.57
2022-08-26T01:53:06.087Z,14.13
2022-08-26T01:55:37.367Z,13.00
2022-08-26T01:58:15.202Z,12.27
2022-08-26T02:00:42.237Z,13.32
2022-08-26T02:03:17.621Z,13.57
2022-08-26T02:06:09.185Z,14.68
2022-08-26T02:08:54.628Z,14.88
2022-08-26T02:11:21.564Z,12.75
2022-08-26T02:14:03.558Z,14.13
2022-08-26T02:16:39.636Z,12.93
2022-08-26T02:19:18.639Z,13.20
2022-08-26T02:21:51.260Z,13.40
2022-08-26T02:24:29.170Z,13.02
2022-08-26T02:26:58.827Z,14.07
2022-08-26T02:29:41.293Z,14.68
2022-08-26T02:32:10.212Z,14.68
2022-08-26T02:34:37.081Z,15.48
2022-08-26T02:37:10.434Z,13.52
2022-08-26T02:39:41.486Z,12.85
2022-08-26T02:42:09.414Z,11.05
2022-08-26T02:44:37.036Z,11.68
2022-08-26T02:47:06.647Z,13.13
2022-08-26T02:49:34.756Z,15.27
2022-08-26T02:52:01.888Z,15.93
2022-08-26T02:54:28.988Z,17.67
2022-08-26T02:56:56.288Z,15.27
2022-08-26T02:59:24.395Z,15.60
2022-08-26T03:01:52.413Z,16.35
2022-08-26T03:04:25.750Z,15.57
2022-08-26T03:06:58.789Z,14.88
2022-08-26T03:09:25.735Z,16.08
2022-08-26T03:11:55.261Z,15.65
2022-08-26T03:14:23.975Z,15.52
2022-08-26T03:16:54.432Z,16.00
2022-08-26T03:19:26.357Z,16.65
2022-08-26T03:21:57.905Z,15.25
2022-08-26T03:24:26.781Z,15.75
2022-08-26T03:26:53.497Z,15.68
2022-08-26T03:29:41.522Z,15.95
2022-08-26T03:32:09.380Z,18.30
2022-08-26T03:34:37.356Z,15.63
2022-08-26T03:37:05.699Z,16.33
2022-08-26T03:39:32.683Z,16.48
2022-08-26T03:42:00.308Z,16.27
2022-08-26T03:44:27.511Z,16.98
2022-08-26T03:46:54.579Z,17.48
2022-08-26T03:49:22.370Z,16.80
2022-08-26T03:51:49.092Z,17.60
2022-08-26T03:54:17.440Z,18.30
2022-08-26T03:56:46.558Z,17.58
2022-08-26T03:59:14.057Z,17.40
2022-08-26T04:01:41.873Z,17.35
2022-08-26T04:04:09.200Z,16.40
2022-08-26T04:06:43.428Z,18.30
2022-08-26T04:09:20.785Z,17.67
2022-08-26T04:11:50.497Z,18.33
2022-08-26T04:14:23.609Z,17.83
2022-08-26T04:16:53.550Z,18.42
2022-08-26T04:19:24.865Z,17.75
2022-08-26T04:21:55.984Z,18.17
2022-08-26T04:24:27.870Z,17.98
2022-08-26T04:26:56.323Z,17.38
2022-08-26T04:29:26.782Z,18.25
2022-08-26T04:31:56.728Z,17.98
2022-08-26T04:34:28.976Z,18.23
2022-08-26T04:36:57.918Z,18.90
2022-08-26T04:39:25.452Z,18.88
2022-08-26T04:41:55.546Z,20.02
2022-08-26T04:44:28.773Z,20.45
2022-08-26T04:46:57.255Z,20.08
2022-08-26T04:49:26.073Z,19.52
2022-08-26T04:51:54.845Z,20.85
2022-08-26T04:54:21.632Z,19.92
2022-08-26T04:56:49.541Z,21.13
2022-08-26T04:59:18.405Z,20.58
2022-08-26T05:01:57.362Z,22.63
2022-08-26T05:04:24.164Z,21.77
2022-08-26T05:06:54.047Z,23.98
2022-08-26T05:09:23.660Z,21.90
2022-08-26T05:11:52.507Z,23.80
2022-08-26T05:14:23.050Z,23.00
2022-08-26T05:16:50.199Z,23.75
2022-08-26T05:19:19.161Z,25.58
2022-08-26T05:21:48.663Z,23.55
2022-08-26T05:24:17.885Z,26.17
2022-08-26T05:26:46.734Z,26.52
2022-08-26T05:29:14.080Z,24.05
2022-08-26T05:31:41.265Z,24.30
2022-08-26T05:34:08.485Z,24.17
2022-08-26T05:36:36.949Z,24.55
2022-08-26T05:39:06.717Z,23.63
2022-08-26T05:41:41.003Z,23.23
2022-08-26T05:44:15.772Z,22.55
2022-08-26T05:46:44.714Z,23.70
2022-08-26T05:49:16.051Z,24.48
2022-08-26T05:51:47.713Z,24.00
2022-08-26T05:54:21.758Z,23.80
2022-08-26T05:56:52.968Z,24.45
2022-08-26T05:59:21.368Z,23.75
2022-08-26T06:01:54.566Z,24.23
2022-08-26T06:04:24.986Z,24.52
2022-08-26T06:06:55.216Z,23.55
2022-08-26T06:09:22.172Z,25.90
2022-08-26T06:11:50.580Z,25.05
2022-08-26T06:14:17.834Z,23.80
2022-08-26T06:16:45.477Z,24.55
2022-08-26T06:19:15.614Z,23.48
2022-08-26T06:21:54.237Z,21.50
2022-08-26T06:24:41.320Z,23.02
2022-08-26T06:27:13.360Z,22.85
2022-08-26T06:29:40.046Z,21.40
2022-08-26T06:32:07.110Z,21.52
2022-08-26T06:34:35.647Z,22.35
2022-08-26T06:37:03.508Z,21.08
2022-08-26T06:39:31.700Z,21.83
2022-08-26T06:42:00.742Z,20.67
2022-08-26T06:44:29.945Z,20.50
2022-08-26T06:46:56.716Z,18.95
2022-08-26T06:49:26.940Z,18.77
2022-08-26T06:52:01.767Z,19.55
2022-08-26T06:54:32.079Z,19.13
2022-08-26T06:56:59.440Z,17.55
2022-08-26T06:59:26.871Z,17.48
2022-08-26T07:01:55.044Z,16.90
2022-08-26T07:04:24.525Z,15.82
2022-08-26T07:06:53.838Z,17.10
2022-08-26T07:09:27.238Z,16.80
2022-08-26T07:11:59.012Z,16.42
2022-08-26T07:14:26.573Z,16.77
2022-08-26T07:16:54.310Z,16.38
2022-08-26T07:19:30.087Z,15.68
2022-08-26T07:22:04.828Z,16.60
2022-08-26T07:24:37.870Z,15.70
2022-08-26T07:27:11.917Z,16.00
2022-08-26T07:29:42.284Z,16.95
2022-08-26T07:32:13.752Z,15.95
2022-08-26T07:34:42.813Z,16.13
2022-08-26T07:37:10.956Z,16.63
2022-08-26T07:39:38.589Z,16.08
2022-08-26T07:42:10.655Z,16.13
2022-08-26T07:44:39.643Z,16.80
2022-08-26T07:47:10.517Z,14.93
2022-08-26T07:49:57.520Z,15.40
2022-08-26T07:52:29.997Z,14.80
2022-08-26T07:55:01.818Z,15.88
2022-08-26T07:57:30.343Z,15.73
2022-08-26T07:59:57.538Z,14.98
2022-08-26T08:02:26.153Z,14.18
2022-08-26T08:04:54.496Z,13.98
2022-08-26T08:07:38.480Z,13.38
2022-08-26T08:10:11.612Z,14.00
2022-08-26T08:12:40.248Z,13.07
2022-08-26T08:15:13.252Z,12.70
2022-08-26T08:17:43.974Z,12.63
2022-08-26T08:20:13.000Z,12.77
2022-08-26T08:22:41.064Z,11.90
2022-08-26T08:25:08.305Z,120.70
2022-08-26T08:27:40.246Z,149.82
2022-08-26T08:30:10.772Z,140.32
2022-08-26T08:35:11.528Z,157.60
2022-08-26T08:37:38.472Z,118.53
2022-08-26T08:40:08.482Z,83.00
2022-08-26T08:43:09.784Z,96.05
2022-08-26T08:45:49.675Z,97.00
2022-08-26T08:48:31.732Z,97.38
2022-08-26T08:51:27.637Z,80.60
2022-08-26T08:53:56.863Z,99.03
2022-08-26T08:56:54.948Z,90.70
2022-08-26T08:59:32.716Z,88.18
2022-08-26T09:02:54.584Z,100.53
2022-08-26T09:05:36.384Z,109.60
2022-08-26T09:08:16.167Z,103.80
2022-08-26T09:10:57.385Z,85.50
2022-08-26T09:13:27.194Z,98.10
2022-08-26T09:16:13.803Z,90.57
2022-08-26T09:19:02.768Z,105.72
2022-08-26T09:21:32.010Z,102.75
2022-08-26T09:23:59.829Z,105.38
2022-08-26T09:26:41.854Z,109.75
2022-08-26T09:29:26.327Z,102.05
2022-08-26T09:32:22.025Z,102.63
2022-08-26T09:35:07.412Z,85.05
2022-08-26T09:40:35.882Z,95.80
2022-08-26T09:43:22.006Z,87.32
2022-08-26T09:45:59.729Z,85.63
2022-08-26T09:48:35.476Z,84.82
2022-08-26T09:51:32.057Z,98.45
2022-08-26T09:54:03.881Z,93.35
2022-08-26T09:56:39.382Z,77.20
2022-08-26T10:01:44.949Z,45.70
2022-08-26T10:04:30.005Z,61.85
2022-08-26T10:07:07.289Z,69.18
2022-08-26T10:09:44.446Z,65.50
2022-08-26T10:12:21.446Z,59.67
2022-08-26T10:15:09.749Z,55.97
2022-08-26T10:18:09.804Z,69.80
2022-08-26T10:20:55.045Z,70.65
2022-08-26T10:23:29.211Z,73.70
2022-08-26T10:26:13.747Z,97.95
2022-08-26T10:29:06.784Z,103.43
2022-08-26T10:31:53.751Z,39.08
2022-08-26T10:34:25.863Z,77.40
2022-08-26T10:37:23.867Z,45.72
2022-08-26T10:40:14.202Z,65.28
2022-08-26T10:42:53.251Z,36.97
2022-08-26T10:45:27.652Z,44.72
2022-08-26T10:48:01.605Z,45.35
2022-08-26T10:53:34.405Z,27.33
2022-08-26T10:56:18.895Z,34.95
2022-08-26T10:59:24.211Z,40.60
2022-08-26T11:02:31.915Z,30.33
2022-08-26T11:05:06.482Z,23.83
2022-08-26T11:07:44.267Z,27.83
2022-08-26T11:10:43.406Z,25.85
2022-08-26T11:13:11.913Z,33.33
2022-08-26T11:15:38.537Z,47.85
2022-08-26T11:18:29.264Z,35.35
2022-08-26T11:20:56.090Z,30.08
2022-08-26T11:23:22.868Z,33.78
2022-08-26T11:25:57.134Z,57.47
2022-08-26T11:28:50.030Z,37.13
2022-08-26T11:31:30.284Z,35.47
2022-08-26T11:34:07.070Z,26.48
2022-08-26T11:36:45.605Z,31.30
2022-08-26T11:39:54.465Z,23.92
2022-08-26T11:42:51.661Z,40.30
2022-08-26T11:45:34.883Z,34.70
2022-08-26T11:48:35.003Z,32.90
2022-08-26T11:51:24.597Z,30.23
2022-08-26T11:54:07.504Z,33.65
2022-08-26T11:56:36.717Z,23.00
2022-08-26T11:59:15.538Z,36.17
2022-08-26T12:01:50.336Z,26.80
2022-08-26T12:04:37.646Z,24.38
2022-08-26T12:07:08.737Z,21.08
2022-08-26T12:10:00.755Z,26.98
2022-08-26T12:12:42.455Z,21.45
2022-08-26T12:15:30.109Z,24.00
2022-08-26T12:18:00.305Z,27.02
2022-08-26T12:20:51.377Z,22.70
2022-08-26T12:23:49.966Z,27.25
2022-08-26T12:26:32.339Z,27.33
2022-08-26T12:29:27.025Z,24.67
2022-08-26T12:32:18.347Z,29.40
2022-08-26T12:34:51.550Z,25.80
2022-08-26T12:37:19.081Z,24.58
2022-08-26T12:39:49.157Z,24.15
2022-08-26T12:42:19.109Z,29.20
2022-08-26T12:45:06.568Z,29.10
2022-08-26T12:47:44.319Z,31.90
2022-08-26T12:50:37.857Z,23.05
2022-08-26T12:53:10.667Z,28.13
2022-08-26T12:55:58.297Z,33.90
2022-08-26T12:58:31.765Z,24.60
2022-08-26T13:03:34.677Z,19.60
2022-08-26T13:06:22.842Z,25.45
2022-08-26T13:09:01.278Z,27.60
2022-08-26T13:11:39.116Z,22.48
2022-08-26T13:14:24.799Z,23.58
2022-08-26T13:16:53.572Z,21.52
2022-08-26T13:19:29.466Z,26.63
2022-08-26T13:22:00.399Z,36.90
2022-08-26T13:24:34.660Z,39.28
2022-08-26T13:27:04.347Z,29.10
2022-08-26T13:29:31.141Z,33.17
2022-08-26T13:32:00.026Z,24.65
2022-08-26T13:34:28.045Z,26.25
2022-08-26T13:36:56.585Z,30.38
2022-08-26T13:39:27.778Z,24.10
2022-08-26T13:41:54.869Z,26.83
2022-08-26T13:44:22.131Z,23.30
2022-08-26T13:46:49.333Z,25.63
2022-08-26T13:49:19.220Z,22.42
2022-08-26T13:51:47.457Z,21.55
2022-08-26T13:54:17.557Z,19.80
2022-08-26T13:56:44.583Z,20.50
2022-08-26T13:59:11.446Z,26.33
2022-08-26T14:01:39.617Z,29.58
2022-08-26T14:04:08.062Z,45.67
2022-08-26T14:06:34.823Z,56.70
2022-08-26T14:09:01.621Z,65.78
2022-08-26T14:11:30.019Z,67.25
2022-08-26T14:14:11.651Z,98.10
2022-08-26T14:16:51.488Z,127.07
2022-08-26T14:19:31.402Z,119.68
2022-08-26T14:22:00.806Z,122.80
2022-08-26T14:24:28.840Z,122.28
2022-08-26T14:26:55.621Z,115.93
2022-08-26T14:29:22.374Z,114.85
2022-08-26T14:31:49.387Z,109.93
2022-08-26T14:34:21.677Z,127.38
2022-08-26T14:36:48.359Z,108.85
2022-08-26T14:39:17.901Z,109.70
2022-08-26T14:41:54.990Z,102.82
2022-08-26T14:44:29.764Z,102.72
2022-08-26T14:46:59.976Z,91.22
2022-08-26T14:49:27.952Z,83.78
2022-08-26T14:51:55.344Z,106.43
2022-08-26T14:54:22.168Z,91.13
2022-08-26T14:56:56.137Z,96.32
2022-08-26T14:59:35.167Z,95.30
2022-08-26T15:02:04.057Z,102.35
2022-08-26T15:04:30.841Z,109.00
2022-08-26T15:07:00.676Z,113.95
2022-08-26T15:09:32.535Z,85.20
2022-08-26T15:11:59.460Z,79.32
2022-08-26T15:14:30.918Z,78.47
2022-08-26T15:16:59.771Z,79.40
2022-08-26T15:19:28.236Z,76.32
2022-08-26T15:21:55.421Z,85.30
2022-08-26T15:24:25.870Z,77.03
2022-08-26T15:26:53.898Z,89.30
2022-08-26T15:29:24.042Z,89.78
2022-08-26T15:31:51.396Z,78.13
2022-08-26T15:34:20.657Z,88.95
2022-08-26T15:36:52.586Z,90.32
2022-08-26T15:39:20.377Z,84.13
2022-08-26T15:41:50.927Z,93.32
2022-08-26T15:44:18.479Z,83.97
2022-08-26T15:46:58.483Z,95.80
2022-08-26T15:49:27.481Z,90.45
2022-08-26T15:51:54.999Z,83.28
2022-08-26T15:54:23.821Z,79.47
2022-08-26T15:56:52.976Z,89.35
2022-08-26T15:59:24.633Z,83.07
2022-08-26T16:01:52.604Z,81.93
2022-08-26T16:04:20.121Z,90.03
2022-08-26T16:06:51.996Z,91.32
2022-08-26T16:09:27.008Z,91.20
2022-08-26T16:11:56.166Z,89.72
2022-08-26T16:14:24.718Z,91.00
2022-08-26T16:16:51.560Z,76.50
2022-08-26T16:19:18.619Z,84.32
2022-08-26T16:21:50.203Z,68.43
2022-08-26T16:24:29.786Z,77.88
2022-08-26T16:26:57.396Z,83.95
2022-08-26T16:29:24.509Z,83.55
2022-08-26T16:31:53.442Z,52.35
2022-08-26T16:34:21.903Z,81.43
2022-08-26T16:36:48.811Z,77.65
2022-08-26T16:39:17.619Z,73.32
2022-08-26T16:41:45.910Z,63.85
2022-08-26T16:44:12.731Z,52.45
2022-08-26T16:46:42.001Z,63.22
2022-08-26T16:49:08.845Z,77.20
2022-08-26T16:51:37.968Z,79.88
2022-08-26T16:54:08.450Z,82.57
2022-08-26T16:56:36.687Z,88.13
2022-08-26T16:59:11.513Z,80.22
2022-08-26T17:01:38.534Z,81.60
2022-08-26T17:04:05.356Z,79.00
2022-08-26T17:06:32.145Z,95.50
2022-08-26T17:08:58.779Z,85.40
2022-08-26T17:11:25.499Z,82.20
2022-08-26T17:13:54.094Z,84.10
2022-08-26T17:16:26.460Z,88.40
2022-08-26T17:18:56.998Z,86.83
2022-08-26T17:21:25.172Z,87.68
2022-08-26T17:23:52.916Z,88.38
2022-08-26T17:26:23.209Z,90.20
2022-08-26T17:28:51.095Z,92.70
2022-08-26T17:31:33.197Z,83.43
2022-08-26T17:33:59.906Z,88.93
2022-08-26T17:36:27.803Z,91.53
2022-08-26T17:38:57.904Z,88.60
2022-08-26T17:41:26.133Z,88.00
2022-08-26T17:43:52.967Z,90.53
2022-08-26T17:46:19.701Z,88.70
2022-08-26T17:48:47.763Z,98.47
2022-08-26T17:51:19.466Z,100.30
2022-08-26T17:53:47.957Z,96.53
2022-08-26T17:56:20.650Z,98.93
2022-08-26T17:58:51.958Z,92.65
2022-08-26T18:01:26.258Z,97.97
2022-08-26T18:04:00.162Z,104.00
2022-08-26T18:06:30.228Z,101.82
2022-08-26T18:08:58.121Z,107.35
2022-08-26T18:11:24.830Z,93.50
2022-08-26T18:13:54.362Z,110.10
2022-08-26T18:16:21.748Z,116.50
2022-08-26T18:18:53.268Z,122.95
2022-08-26T18:21:26.804Z,130.45
2022-08-26T18:23:55.311Z,141.32
2022-08-26T18:26:30.140Z,121.10
2022-08-26T18:28:58.018Z,123.05
2022-08-26T18:31:33.925Z,135.73
2022-08-26T18:34:02.992Z,121.07
2022-08-26T18:36:37.082Z,144.65
2022-08-26T18:39:06.888Z,126.80
2022-08-26T18:41:43.793Z,118.97
2022-08-26T18:44:13.773Z,129.70
2022-08-26T18:46:43.276Z,115.90
2022-08-26T18:49:15.221Z,122.78
2022-08-26T18:51:43.985Z,113.95
2022-08-26T18:54:11.787Z,114.60
2022-08-26T18:56:40.713Z,109.05
2022-08-26T18:59:09.547Z,113.57
2022-08-26T19:01:40.448Z,120.68
2022-08-26T19:04:14.141Z,120.85
2022-08-26T19:06:49.017Z,120.57
2022-08-26T19:09:19.008Z,127.75
2022-08-26T19:12:02.506Z,129.48
2022-08-26T19:14:32.809Z,121.07
2022-08-26T19:17:01.407Z,120.43
2022-08-26T19:19:31.981Z,137.10
2022-08-26T19:21:58.900Z,119.57
2022-08-26T19:24:31.655Z,139.70
2022-08-26T19:27:02.298Z,136.15
2022-08-26T19:29:36.768Z,125.78
2022-08-26T19:32:05.268Z,138.50
2022-08-26T19:34:32.432Z,129.00
2022-08-26T19:36:59.253Z,112.47
2022-08-26T19:39:32.159Z,115.07
2022-08-26T19:42:00.285Z,134.32
2022-08-26T19:44:48.558Z,140.02
2022-08-26T19:47:24.419Z,111.25
2022-08-26T19:49:56.461Z,105.72
2022-08-26T19:52:32.973Z,115.00
2022-08-26T19:55:02.509Z,113.68
2022-08-26T19:57:33.309Z,110.57
2022-08-26T20:00:01.074Z,107.60
2022-08-26T20:02:34.068Z,106.70
2022-08-26T20:05:00.826Z,119.43
2022-08-26T20:07:33.292Z,113.15
2022-08-26T20:10:00.969Z,103.63
2022-08-26T20:12:31.896Z,108.18
2022-08-26T20:14:58.732Z,106.88
2022-08-26T20:17:25.932Z,99.40
2022-08-26T20:20:14.655Z,101.60
2022-08-26T20:22:58.756Z,116.22
2022-08-26T20:25:35.744Z,110.25
2022-08-26T20:28:02.970Z,106.03
2022-08-26T20:30:30.051Z,106.72
2022-08-26T20:32:57.362Z,95.10
2022-08-26T20:35:27.353Z,91.70
2022-08-26T20:37:54.207Z,97.72
2022-08-26T20:40:22.576Z,101.18
2022-08-26T20:42:49.581Z,96.50
2022-08-26T20:45:30.830Z,105.57
2022-08-26T20:47:57.997Z,108.53
2022-08-26T20:50:24.831Z,102.88
2022-08-26T20:52:53.670Z,107.43
2022-08-26T20:55:21.418Z,104.05
2022-08-26T20:57:51.979Z,110.45
2022-08-26T21:00:39.399Z,100.60
2022-08-26T21:03:06.142Z,105.13
2022-08-26T21:05:39.183Z,95.50
2022-08-26T21:08:05.888Z,109.90
2022-08-26T21:10:32.885Z,101.72
2022-08-26T21:13:00.368Z,94.53
2022-08-26T21:15:27.631Z,98.25
2022-08-26T21:17:54.346Z,93.93
2022-08-26T21:20:32.736Z,100.60
2022-08-26T21:22:59.764Z,101.53
2022-08-26T21:25:26.964Z,107.75
2022-08-26T21:27:54.090Z,109.78
2022-08-26T21:30:28.544Z,112.20
2022-08-26T21:32:55.299Z,94.68
2022-08-26T21:35:29.570Z,103.70
2022-08-26T21:37:56.517Z,99.85
2022-08-26T21:40:29.692Z,95.75
2022-08-26T21:42:56.611Z,103.18
2022-08-26T21:45:32.120Z,90.95
2022-08-26T21:47:58.860Z,93.47
2022-08-26T21:50:25.738Z,107.95
2022-08-26T21:52:52.950Z,100.10
2022-08-26T21:55:25.183Z,91.40
2022-08-26T21:57:52.254Z,97.68
2022-08-26T22:00:19.634Z,92.28
2022-08-26T22:02:47.977Z,91.85
2022-08-26T22:05:15.971Z,92.28
2022-08-26T22:07:42.735Z,82.93
2022-08-26T22:10:09.746Z,87.68
2022-08-26T22:12:36.446Z,88.95
2022-08-26T22:15:03.848Z,95.15
2022-08-26T22:17:30.663Z,91.03
2022-08-26T22:19:57.542Z,89.95
2022-08-26T22:22:26.222Z,93.35
2022-08-26T22:24:55.427Z,86.32
2022-08-26T22:27:23.054Z,84.65
2022-08-26T22:29:50.622Z,82.68
2022-08-26T22:32:18.561Z,85.68
2022-08-26T22:34:45.705Z,90.07
2022-08-26T22:37:12.455Z,87.72
2022-08-26T22:39:39.206Z,90.53
2022-08-26T22:42:07.094Z,86.35
2022-08-26T22:44:36.437Z,95.32
2022-08-26T22:47:03.446Z,86.97
2022-08-26T22:49:30.226Z,95.32
2022-08-26T22:51:56.980Z,89.43
2022-08-26T22:54:23.698Z,90.45
2022-08-26T22:56:50.480Z,112.63
2022-08-26T22:59:17.885Z,97.93
2022-08-26T23:01:46.361Z,90.47
2022-08-26T23:04:14.107Z,100.28
2022-08-26T23:06:47.625Z,96.45
2022-08-26T23:11:47.762Z,107.07
2022-08-26T23:14:16.895Z,104.07
2022-08-26T23:16:44.376Z,96.05
2022-08-26T23:19:14.847Z,89.13
2022-08-26T23:21:42.855Z,85.70
2022-08-26T23:24:10.970Z,86.47
2022-08-26T23:26:41.031Z,89.28
2022-08-26T23:29:12.781Z,80.88
2022-08-26T23:31:42.322Z,84.30
2022-08-26T23:34:28.849Z,81.20
2022-08-26T23:36:56.935Z,84.90
2022-08-26T23:39:25.462Z,94.30
2022-08-26T23:41:52.451Z,78.13
2022-08-26T23:44:20.642Z,77.20
2022-08-26T23:46:47.518Z,77.97
2022-08-26T23:49:14.246Z,79.03
2022-08-26T23:51:59.468Z,73.95
2022-08-26T23:54:26.387Z,78.68
2022-08-26T23:56:53.299Z,81.10
2022-08-26T23:59:20.601Z,78.20
